createdAt,value
2023-04-21T00:01:55.515Z,102135.97
2023-04-21T00:04:26.054Z,102131.56
2023-04-21T00:06:57.227Z,102131.28
2023-04-21T00:09:27.104Z,102127.81
2023-04-21T00:11:56.705Z,102124.31
2023-04-21T00:14:26.640Z,102128.69
2023-04-21T00:16:56.240Z,102128.69
2023-04-21T00:19:29.254Z,102132.34
2023-04-21T00:22:01.505Z,102123.44
2023-04-21T00:24:31.558Z,102130.34
2023-04-21T00:27:01.363Z,102133.88
2023-04-21T00:29:31.281Z,102131.81
2023-04-21T00:32:02.295Z,102132.56
2023-04-21T00:34:33.928Z,102132.66
2023-04-21T00:37:05.146Z,102131.66
2023-04-21T00:39:35.518Z,102131.47
2023-04-21T00:42:05.106Z,102134.69
2023-04-21T00:44:35.030Z,102138.28
2023-04-21T00:47:05.227Z,102141.75
2023-04-21T00:49:35.364Z,102136.50
2023-04-21T00:52:07.279Z,102140.75
2023-04-21T00:54:37.439Z,102135.44
2023-04-21T00:57:08.258Z,102127.31
2023-04-21T00:59:38.171Z,102133.44
2023-04-21T01:02:07.956Z,102129.97
2023-04-21T01:04:40.035Z,102133.31
2023-04-21T01:07:11.032Z,102138.31
2023-04-21T01:09:41.336Z,102131.16
2023-04-21T01:12:11.963Z,102129.53
2023-04-21T01:14:42.413Z,102125.09
2023-04-21T01:17:13.322Z,102127.63
2023-04-21T01:19:43.970Z,102126.47
2023-04-21T01:22:15.581Z,102126.06
2023-04-21T01:24:48.576Z,102129.41
2023-04-21T01:27:19.636Z,102126.47
2023-04-21T01:29:51.922Z,102122.19
2023-04-21T01:32:22.548Z,102119.59
2023-04-21T01:34:52.677Z,102118.72
2023-04-21T01:37:24.462Z,102121.41
2023-04-21T01:39:55.781Z,102122.25
2023-04-21T01:42:27.574Z,102116.84
2023-04-21T01:44:58.081Z,102112.31
2023-04-21T01:47:27.815Z,102109.53
2023-04-21T01:49:57.662Z,102107.75
2023-04-21T01:52:28.834Z,102105.13
2023-04-21T01:54:58.759Z,102111.06
2023-04-21T01:57:28.405Z,102110.94
2023-04-21T01:59:58.260Z,102109.94
2023-04-21T02:02:27.908Z,102108.25
2023-04-21T02:04:57.978Z,102102.72
2023-04-21T02:07:29.043Z,102104.25
2023-04-21T02:09:58.967Z,102099.00
2023-04-21T02:12:28.626Z,102097.13
2023-04-21T02:14:58.605Z,102098.06
2023-04-21T02:17:28.405Z,102103.22
2023-04-21T02:20:00.480Z,102101.41
2023-04-21T02:22:32.729Z,102098.63
2023-04-21T02:25:06.449Z,102102.00
2023-04-21T02:27:36.082Z,102106.22
2023-04-21T02:30:07.250Z,102104.34
2023-04-21T02:32:36.957Z,102104.16
2023-04-21T02:35:07.836Z,102109.50
2023-04-21T02:37:38.897Z,102109.50
2023-04-21T02:40:09.696Z,102104.16
2023-04-21T02:42:39.313Z,102105.00
2023-04-21T02:45:09.939Z,102115.44
2023-04-21T02:47:39.542Z,102105.59
2023-04-21T02:50:10.412Z,102107.53
2023-04-21T02:52:41.610Z,102101.19
2023-04-21T02:55:11.674Z,102106.34
2023-04-21T02:57:41.375Z,102107.16
2023-04-21T03:00:12.915Z,102107.88
2023-04-21T03:02:42.902Z,102104.41
2023-04-21T03:05:13.051Z,102105.13
2023-04-21T03:07:44.138Z,102111.16
2023-04-21T03:10:14.469Z,102105.59
2023-04-21T03:12:44.319Z,102107.25
2023-04-21T03:15:15.440Z,102103.94
2023-04-21T03:17:45.228Z,102091.84
2023-04-21T03:20:16.363Z,102101.34
2023-04-21T03:22:47.434Z,102095.03
2023-04-21T03:25:17.463Z,102089.69
2023-04-21T03:27:47.033Z,102099.38
2023-04-21T03:30:18.191Z,102090.56
2023-04-21T03:32:47.965Z,102101.72
2023-04-21T03:35:17.890Z,102096.41
2023-04-21T03:37:50.012Z,102100.81
2023-04-21T03:40:19.933Z,102100.81
2023-04-21T03:42:51.019Z,102086.88
2023-04-21T03:45:22.948Z,102085.06
2023-04-21T03:47:55.108Z,102096.22
2023-04-21T03:50:25.211Z,102090.97
2023-04-21T03:52:56.317Z,102088.34
2023-04-21T03:55:26.192Z,102095.38
2023-04-21T03:57:55.784Z,102096.41
2023-04-21T04:00:25.946Z,102099.81
2023-04-21T04:02:55.605Z,102095.47
2023-04-21T04:05:25.754Z,102098.59
2023-04-21T04:07:56.936Z,102097.75
2023-04-21T04:10:26.839Z,102097.94
2023-04-21T04:12:56.711Z,102101.66
2023-04-21T04:15:27.425Z,102105.38
2023-04-21T04:17:57.123Z,102100.41
2023-04-21T04:20:27.239Z,102101.50
2023-04-21T04:23:00.377Z,102103.47
2023-04-21T04:25:30.537Z,102101.16
2023-04-21T04:28:00.181Z,102103.16
2023-04-21T04:30:30.176Z,102115.69
2023-04-21T04:32:59.800Z,102111.53
2023-04-21T04:35:29.749Z,102110.06
2023-04-21T04:38:00.847Z,102106.09
2023-04-21T04:40:30.930Z,102111.63
2023-04-21T04:43:02.876Z,102108.47
2023-04-21T04:45:33.423Z,102108.94
2023-04-21T04:48:03.342Z,102102.34
2023-04-21T04:50:33.518Z,102100.09
2023-04-21T04:53:04.680Z,102100.47
2023-04-21T04:55:34.759Z,102103.50
2023-04-21T04:58:04.472Z,102097.88
2023-04-21T05:00:34.455Z,102101.94
2023-04-21T05:03:04.216Z,102097.03
2023-04-21T05:05:34.386Z,102092.28
2023-04-21T05:08:06.317Z,102089.34
2023-04-21T05:10:36.504Z,102090.03
2023-04-21T05:13:06.092Z,102094.25
2023-04-21T05:15:36.186Z,102088.75
2023-04-21T05:18:05.882Z,102092.94
2023-04-21T05:20:36.022Z,102097.13
2023-04-21T05:23:07.292Z,102092.50
2023-04-21T05:25:38.890Z,102088.84
2023-04-21T05:28:08.430Z,102090.38
2023-04-21T05:30:38.436Z,102090.88
2023-04-21T05:33:07.967Z,102087.94
2023-04-21T05:35:38.335Z,102086.16
2023-04-21T05:38:09.751Z,102090.38
2023-04-21T05:40:39.710Z,102087.22
2023-04-21T05:43:09.288Z,102080.28
2023-04-21T05:45:40.848Z,102083.03
2023-04-21T05:48:13.361Z,102088.03
2023-04-21T05:50:43.870Z,102092.09
2023-04-21T05:53:15.065Z,102088.44
2023-04-21T05:55:45.519Z,102080.69
2023-04-21T05:58:15.235Z,102088.16
2023-04-21T06:00:47.936Z,102083.81
2023-04-21T06:03:18.809Z,102079.34
2023-04-21T06:05:49.399Z,102081.81
2023-04-21T06:08:20.587Z,102077.81
2023-04-21T06:10:50.658Z,102075.22
2023-04-21T06:13:20.269Z,102072.41
2023-04-21T06:15:50.322Z,102076.78
2023-04-21T06:18:20.037Z,102064.75
2023-04-21T06:20:52.977Z,102058.88
2023-04-21T06:23:24.014Z,102061.75
2023-04-21T06:26:05.481Z,102061.00
2023-04-21T06:28:35.650Z,102048.53
2023-04-21T06:31:08.757Z,102053.31
2023-04-21T06:33:38.654Z,102048.16
2023-04-21T06:36:09.005Z,102046.47
2023-04-21T06:38:43.424Z,102041.19
2023-04-21T06:41:13.495Z,102047.28
2023-04-21T06:43:43.377Z,102048.75
2023-04-21T06:46:13.350Z,102055.31
2023-04-21T06:48:43.088Z,102056.28
2023-04-21T06:51:13.136Z,102055.44
2023-04-21T06:53:44.147Z,102051.94
2023-04-21T06:56:13.989Z,102058.13
2023-04-21T06:58:43.580Z,102057.22
2023-04-21T07:01:13.574Z,102053.72
2023-04-21T07:03:43.458Z,102051.00
2023-04-21T07:06:13.552Z,102059.84
2023-04-21T07:08:44.776Z,102059.00
2023-04-21T07:11:14.735Z,102055.53
2023-04-21T07:13:44.342Z,102058.13
2023-04-21T07:16:14.226Z,102058.19
2023-04-21T07:18:43.790Z,102044.81
2023-04-21T07:21:13.745Z,102058.94
2023-04-21T07:23:45.214Z,102054.44
2023-04-21T07:26:15.249Z,102052.72
2023-04-21T07:28:45.015Z,102059.00
2023-04-21T07:31:15.089Z,102050.97
2023-04-21T07:33:44.739Z,102055.44
2023-04-21T07:36:15.835Z,102053.63
2023-04-21T07:38:46.839Z,102058.06
2023-04-21T07:41:17.113Z,102057.13
2023-04-21T07:43:47.310Z,102050.06
2023-04-21T07:46:17.216Z,102050.16
2023-04-21T07:48:46.854Z,102051.94
2023-04-21T07:51:18.192Z,102048.28
2023-04-21T07:53:49.509Z,102051.03
2023-04-21T07:56:19.530Z,102047.53
2023-04-21T07:58:49.215Z,102048.38
2023-04-21T08:01:19.402Z,102047.34
2023-04-21T08:03:49.223Z,102049.91
2023-04-21T08:06:19.454Z,102035.66
2023-04-21T08:08:50.575Z,102035.84
2023-04-21T08:11:20.786Z,102038.47
2023-04-21T08:13:51.910Z,102036.69
2023-04-21T08:16:22.014Z,102036.47
2023-04-21T08:18:51.636Z,102040.03
2023-04-21T08:21:21.714Z,102033.66
2023-04-21T08:23:52.711Z,102033.50
2023-04-21T08:26:23.085Z,102032.66
2023-04-21T08:28:52.983Z,102031.88
2023-04-21T08:31:23.084Z,102037.16
2023-04-21T08:34:01.327Z,102029.06
2023-04-21T08:36:33.203Z,102029.94
2023-04-21T08:39:04.423Z,102032.69
2023-04-21T08:41:34.442Z,102027.31
2023-04-21T08:44:04.080Z,102033.31
2023-04-21T08:46:34.199Z,102030.16
2023-04-21T08:49:04.025Z,102022.88
2023-04-21T08:51:34.720Z,102025.25
2023-04-21T08:54:05.846Z,102023.13
2023-04-21T08:56:36.285Z,102017.06
2023-04-21T08:59:05.824Z,102017.56
2023-04-21T09:01:36.058Z,102014.19
2023-04-21T09:04:18.326Z,102010.66
2023-04-21T09:06:48.738Z,102001.91
2023-04-21T09:09:20.031Z,102010.19
2023-04-21T09:11:57.433Z,102012.38
2023-04-21T09:14:32.873Z,102008.38
2023-04-21T09:17:03.919Z,102004.53
2023-04-21T09:19:35.746Z,102001.59
2023-04-21T09:22:05.757Z,102009.09
2023-04-21T09:24:36.888Z,102007.56
2023-04-21T09:27:06.919Z,101999.88
2023-04-21T09:29:36.489Z,102002.75
2023-04-21T09:32:07.173Z,102000.81
2023-04-21T09:34:42.785Z,101999.16
2023-04-21T09:37:14.614Z,101996.59
2023-04-21T09:40:03.368Z,101993.03
2023-04-21T09:42:39.664Z,101996.31
2023-04-21T09:45:29.088Z,101995.56
2023-04-21T09:48:03.151Z,101988.16
2023-04-21T09:51:15.371Z,101990.88
2023-04-21T09:53:25.857Z,101991.53
2023-04-21T09:55:58.568Z,101990.13
2023-04-21T09:58:30.071Z,101997.66
2023-04-21T10:00:59.923Z,101991.47
2023-04-21T10:03:30.852Z,101987.75
2023-04-21T10:06:01.501Z,101981.28
2023-04-21T10:08:31.893Z,101980.84
2023-04-21T10:11:03.738Z,101975.13
2023-04-21T10:13:34.490Z,101975.03
2023-04-21T10:16:05.196Z,101981.97
2023-04-21T10:18:37.158Z,101974.59
2023-04-21T10:21:08.178Z,101980.66
2023-04-21T10:23:39.412Z,101981.78
2023-04-21T10:26:13.568Z,101974.22
2023-04-21T10:28:44.408Z,101970.66
2023-04-21T10:31:18.811Z,101977.69
2023-04-21T10:34:07.769Z,101972.59
2023-04-21T10:36:43.888Z,101964.63
2023-04-21T10:39:16.046Z,101972.31
2023-04-21T10:41:47.789Z,101962.78
2023-04-21T10:44:18.396Z,101974.63
2023-04-21T10:46:49.125Z,101968.81
2023-04-21T10:49:23.089Z,101964.06
2023-04-21T10:52:16.706Z,101951.66
2023-04-21T10:55:07.268Z,101954.34
2023-04-21T10:57:38.601Z,101954.66
2023-04-21T11:00:10.376Z,101952.13
2023-04-21T11:02:42.548Z,101953.25
2023-04-21T11:05:14.374Z,101945.94
2023-04-21T11:07:44.068Z,101951.28
2023-04-21T11:10:15.256Z,101936.88
2023-04-21T11:12:46.510Z,101943.09
2023-04-21T11:15:16.560Z,101937.69
2023-04-21T11:17:48.189Z,101936.09
2023-04-21T11:20:18.240Z,101930.66
2023-04-21T11:22:47.813Z,101935.78
2023-04-21T11:25:21.055Z,101933.19
2023-04-21T11:28:00.346Z,101932.66
2023-04-21T11:30:34.945Z,101923.66
2023-04-21T11:33:06.189Z,101922.56
2023-04-21T11:35:37.211Z,101922.66
2023-04-21T11:38:07.161Z,101920.75
2023-04-21T11:40:46.213Z,101922.00
2023-04-21T11:43:17.604Z,101917.72
2023-04-21T11:45:50.169Z,101915.03
2023-04-21T11:48:21.064Z,101910.47
2023-04-21T11:50:51.645Z,101916.41
2023-04-21T11:53:21.341Z,101905.19
2023-04-21T11:55:51.475Z,101899.38
2023-04-21T11:58:23.942Z,101904.50
2023-04-21T12:00:53.850Z,101908.38
2023-04-21T12:03:24.145Z,101909.63
2023-04-21T12:05:58.193Z,101907.66
2023-04-21T12:08:30.860Z,101912.03
2023-04-21T12:11:01.008Z,101897.97
2023-04-21T12:13:32.789Z,101905.13
2023-04-21T12:16:04.291Z,101893.69
2023-04-21T12:18:36.198Z,101893.38
2023-04-21T12:21:06.811Z,101884.91
2023-04-21T12:23:36.440Z,101886.09
2023-04-21T12:26:06.857Z,101880.91
2023-04-21T12:28:38.221Z,101876.28
2023-04-21T12:31:08.422Z,101876.19
2023-04-21T12:33:38.345Z,101872.72
2023-04-21T12:36:08.496Z,101869.88
2023-04-21T12:38:38.615Z,101870.63
2023-04-21T12:41:08.788Z,101868.53
2023-04-21T12:43:40.282Z,101866.84
2023-04-21T12:46:11.006Z,101866.50
2023-04-21T12:48:40.724Z,101855.41
2023-04-21T12:51:10.577Z,101855.31
2023-04-21T12:53:40.403Z,101863.50
2023-04-21T12:56:10.441Z,101857.06
2023-04-21T12:58:42.562Z,101850.00
2023-04-21T13:01:15.686Z,101857.84
2023-04-21T13:03:47.075Z,101841.69
2023-04-21T13:06:17.138Z,101845.94
2023-04-21T13:08:46.856Z,101851.56
2023-04-21T13:11:16.745Z,101843.72
2023-04-21T13:13:48.792Z,101839.16
2023-04-21T13:16:19.113Z,101839.94
2023-04-21T13:18:48.855Z,101836.56
2023-04-21T13:21:18.834Z,101831.81
2023-04-21T13:23:48.736Z,101828.09
2023-04-21T13:26:19.358Z,101831.22
2023-04-21T13:28:50.485Z,101829.22
2023-04-21T13:31:20.578Z,101817.34
2023-04-21T13:33:52.932Z,101815.28
2023-04-21T13:36:23.731Z,101813.56
2023-04-21T13:38:54.197Z,101804.84
2023-04-21T13:41:24.505Z,101809.69
2023-04-21T13:43:55.717Z,101813.22
2023-04-21T13:46:25.881Z,101810.06
2023-04-21T13:48:55.686Z,101803.22
2023-04-21T13:51:25.809Z,101806.19
2023-04-21T13:53:55.583Z,101800.03
2023-04-21T13:56:25.803Z,101804.47
2023-04-21T13:58:56.744Z,101801.50
2023-04-21T14:01:26.775Z,101796.88
2023-04-21T14:03:57.535Z,101790.41
2023-04-21T14:06:28.285Z,101786.41
2023-04-21T14:08:57.944Z,101788.47
2023-04-21T14:11:27.908Z,101779.13
2023-04-21T14:14:08.810Z,101773.47
2023-04-21T14:16:39.880Z,101775.31
2023-04-21T14:19:10.549Z,101771.44
2023-04-21T14:21:40.495Z,101771.09
2023-04-21T14:24:10.529Z,101760.72
2023-04-21T14:26:40.557Z,101768.53
2023-04-21T14:29:11.828Z,101767.97
2023-04-21T14:31:41.815Z,101772.50
2023-04-21T14:34:11.419Z,101772.47
2023-04-21T14:36:43.117Z,101765.22
2023-04-21T14:39:12.983Z,101768.16
2023-04-21T14:41:43.117Z,101763.97
2023-04-21T14:44:14.281Z,101759.44
2023-04-21T14:46:50.450Z,101756.19
2023-04-21T14:49:26.937Z,101752.47
2023-04-21T14:51:56.883Z,101753.53
2023-04-21T14:54:26.658Z,101747.22
2023-04-21T14:57:10.536Z,101756.13
2023-04-21T14:59:48.361Z,101753.75
2023-04-21T15:02:18.855Z,101738.69
2023-04-21T15:04:48.694Z,101746.78
2023-04-21T15:07:23.890Z,101741.31
2023-04-21T15:09:57.723Z,101737.88
2023-04-21T15:12:30.818Z,101734.31
2023-04-21T15:15:05.767Z,101735.28
2023-04-21T15:17:37.196Z,101738.09
2023-04-21T15:20:07.510Z,101740.88
2023-04-21T15:22:40.710Z,101730.94
2023-04-21T15:25:10.822Z,101736.25
2023-04-21T15:27:42.197Z,101734.53
2023-04-21T15:30:14.697Z,101730.09
2023-04-21T15:32:44.673Z,101723.00
2023-04-21T15:35:16.170Z,101714.03
2023-04-21T15:37:47.048Z,101718.53
2023-04-21T15:40:22.956Z,101713.19
2023-04-21T15:42:55.318Z,101711.28
2023-04-21T15:45:29.102Z,101699.78
2023-04-21T15:48:01.544Z,101704.22
2023-04-21T15:50:32.603Z,101706.91
2023-04-21T15:53:06.867Z,101695.44
2023-04-21T15:55:36.506Z,101696.31
2023-04-21T15:58:06.575Z,101699.91
2023-04-21T16:00:37.730Z,101700.91
2023-04-21T16:03:08.288Z,101699.22
2023-04-21T16:05:38.201Z,101652.38
2023-04-21T16:08:08.327Z,101707.25
2023-04-21T16:10:38.069Z,101705.53
2023-04-21T16:13:11.530Z,101703.91
2023-04-21T16:15:44.110Z,101701.22
2023-04-21T16:18:14.230Z,101703.97
2023-04-21T16:20:46.096Z,101694.19
2023-04-21T16:23:16.662Z,101706.59
2023-04-21T16:25:48.740Z,101706.69
2023-04-21T16:28:18.916Z,101697.84
2023-04-21T16:30:50.358Z,101701.44
2023-04-21T16:33:21.264Z,101705.84
2023-04-21T16:35:52.332Z,101705.00
2023-04-21T16:38:22.467Z,101703.19
2023-04-21T16:40:52.242Z,101704.13
2023-04-21T16:43:22.308Z,101697.03
2023-04-21T16:45:53.756Z,101700.59
2023-04-21T16:48:25.616Z,101697.09
2023-04-21T16:50:55.707Z,101693.53
2023-04-21T16:53:26.956Z,101698.00
2023-04-21T16:55:56.870Z,101694.47
2023-04-21T16:58:27.711Z,101690.06
2023-04-21T17:00:59.402Z,101685.63
2023-04-21T17:03:29.901Z,101687.41
2023-04-21T17:05:59.886Z,101686.53
2023-04-21T17:08:29.818Z,101685.66
2023-04-21T17:11:00.337Z,101686.53
2023-04-21T17:13:30.526Z,101681.25
2023-04-21T17:16:01.768Z,101683.00
2023-04-21T17:18:31.787Z,101680.31
2023-04-21T17:21:01.504Z,101684.75
2023-04-21T17:23:31.406Z,101686.53
2023-04-21T17:26:01.171Z,101682.06
2023-04-21T17:28:31.364Z,101686.50
2023-04-21T17:31:14.414Z,101684.72
2023-04-21T17:33:45.535Z,101680.31
2023-04-21T17:36:17.184Z,101688.25
2023-04-21T17:38:47.158Z,101677.59
2023-04-21T17:41:18.158Z,101691.72
2023-04-21T17:43:49.705Z,101686.38
2023-04-21T17:46:25.162Z,101682.78
2023-04-21T17:48:56.464Z,101685.44
2023-04-21T17:51:26.475Z,101692.44
2023-04-21T17:53:59.060Z,101688.88
2023-04-21T17:56:29.797Z,101685.34
2023-04-21T17:58:59.964Z,101692.41
2023-04-21T18:01:31.984Z,101688.78
2023-04-21T18:04:03.261Z,101692.31
2023-04-21T18:06:33.341Z,101694.06
2023-04-21T18:09:04.699Z,101691.31
2023-04-21T18:11:34.358Z,101696.53
2023-04-21T18:14:04.255Z,101692.13
2023-04-21T18:16:35.931Z,101692.06
2023-04-21T18:19:07.209Z,101696.44
2023-04-21T18:21:38.440Z,101692.03
2023-04-21T18:24:08.988Z,101698.13
2023-04-21T18:26:39.112Z,101696.34
2023-04-21T18:29:11.605Z,101696.28
2023-04-21T18:31:45.717Z,101694.44
2023-04-21T18:34:17.510Z,101701.41
2023-04-21T18:36:50.309Z,101692.56
2023-04-21T18:39:22.319Z,101692.44
2023-04-21T18:41:52.349Z,101692.38
2023-04-21T18:44:22.515Z,101683.59
2023-04-21T18:46:54.264Z,101625.06
2023-04-21T18:49:24.540Z,101680.91
2023-04-21T18:51:54.791Z,101677.25
2023-04-21T18:54:25.282Z,101676.38
2023-04-21T18:56:55.483Z,101677.19
2023-04-21T18:59:26.949Z,101677.19
2023-04-21T19:01:58.682Z,101679.84
2023-04-21T19:04:29.764Z,101673.59
2023-04-21T19:06:59.502Z,101678.81
2023-04-21T19:09:30.711Z,101683.78
2023-04-21T19:12:00.729Z,101682.69
2023-04-21T19:14:42.524Z,101675.53
2023-04-21T19:17:19.189Z,101674.41
2023-04-21T19:19:49.871Z,101677.84
2023-04-21T19:22:22.761Z,101673.38
2023-04-21T19:24:56.940Z,101672.47
2023-04-21T19:27:28.165Z,101673.19
2023-04-21T19:29:58.626Z,101671.25
2023-04-21T19:32:29.788Z,101645.25
2023-04-21T19:35:02.563Z,101670.03
2023-04-21T19:37:35.258Z,101665.59
2023-04-21T19:40:05.858Z,101660.22
2023-04-21T19:42:38.856Z,101668.97
2023-04-21T19:45:14.961Z,101660.91
2023-04-21T19:47:49.846Z,101663.41
2023-04-21T19:50:25.278Z,101652.78
2023-04-21T19:52:56.349Z,101646.50
2023-04-21T19:55:28.703Z,101651.66
2023-04-21T19:57:59.088Z,101645.41
2023-04-21T20:00:33.865Z,101646.03
2023-04-21T20:03:11.054Z,101644.13
2023-04-21T20:05:47.217Z,101640.72
2023-04-21T20:08:21.871Z,101641.34
2023-04-21T20:10:57.876Z,101644.69
2023-04-21T20:13:33.337Z,101636.66
2023-04-21T20:16:06.339Z,101647.97
2023-04-21T20:18:37.817Z,101646.03
2023-04-21T20:21:08.376Z,101633.69
2023-04-21T20:23:39.575Z,101638.88
2023-04-21T20:26:10.889Z,101631.59
2023-04-21T20:28:42.315Z,101639.38
2023-04-21T20:31:13.736Z,101633.94
2023-04-21T20:33:46.038Z,101635.56
2023-04-21T20:36:16.037Z,101631.13
2023-04-21T20:38:46.943Z,101624.84
2023-04-21T20:41:18.850Z,101633.69
2023-04-21T20:43:49.183Z,101633.81
2023-04-21T20:46:19.557Z,101635.47
2023-04-21T20:48:50.934Z,101636.13
2023-04-21T20:51:21.773Z,101631.59
2023-04-21T20:53:51.616Z,101630.44
2023-04-21T20:56:22.155Z,101635.56
2023-04-21T20:58:52.276Z,101622.28
2023-04-21T21:01:23.939Z,101626.63
2023-04-21T21:03:55.011Z,101621.06
2023-04-21T21:06:25.003Z,101628.09
2023-04-21T21:08:56.596Z,101623.84
2023-04-21T21:11:27.616Z,101629.00
2023-04-21T21:13:57.587Z,101624.50
2023-04-21T21:16:29.753Z,101625.47
2023-04-21T21:19:01.029Z,101626.38
2023-04-21T21:21:31.947Z,101616.56
2023-04-21T21:24:01.687Z,101622.53
2023-04-21T21:26:32.084Z,101625.75
2023-04-21T21:29:01.796Z,101625.63
2023-04-21T21:31:31.894Z,101621.97
2023-04-21T21:34:04.212Z,101613.16
2023-04-21T21:36:34.623Z,101611.34
2023-04-21T21:39:07.808Z,101610.41
2023-04-21T21:41:41.203Z,101611.06
2023-04-21T21:44:11.004Z,101608.38
2023-04-21T21:46:41.026Z,101606.53
2023-04-21T21:49:12.374Z,101606.41
2023-04-21T21:51:42.524Z,101599.28
2023-04-21T21:54:12.046Z,101597.47
2023-04-21T21:56:42.392Z,101603.53
2023-04-21T21:59:12.071Z,101606.13
2023-04-21T22:01:42.619Z,101610.38
2023-04-21T22:04:14.017Z,101612.91
2023-04-21T22:06:45.541Z,101603.19
2023-04-21T22:09:15.175Z,101607.44
2023-04-21T22:11:45.122Z,101612.72
2023-04-21T22:14:23.476Z,101607.38
2023-04-21T22:16:54.181Z,101608.19
2023-04-21T22:19:25.772Z,101598.53
2023-04-21T22:21:56.515Z,101601.94
2023-04-21T22:24:26.206Z,101597.38
2023-04-21T22:26:56.710Z,101607.91
2023-04-21T22:29:26.280Z,101601.88
2023-04-21T22:31:56.199Z,101607.94
2023-04-21T22:34:27.313Z,101593.19
2023-04-21T22:36:57.888Z,101587.75
2023-04-21T22:39:29.124Z,101597.25
2023-04-21T22:41:59.133Z,101592.66
2023-04-21T22:44:28.766Z,101584.84
2023-04-21T22:46:58.645Z,101583.84
2023-04-21T22:49:29.814Z,101586.25
2023-04-21T22:51:59.829Z,101574.91
2023-04-21T22:54:29.526Z,101590.47
2023-04-21T22:56:59.361Z,101586.84
2023-04-21T22:59:28.939Z,101589.34
2023-04-21T23:01:59.049Z,101585.66
2023-04-21T23:04:30.599Z,101582.00
2023-04-21T23:07:00.529Z,101581.16
2023-04-21T23:09:30.102Z,101580.97
2023-04-21T23:12:00.220Z,101585.16
2023-04-21T23:14:29.777Z,101583.16
2023-04-21T23:16:59.862Z,101575.06
2023-04-21T23:19:31.116Z,101579.34
2023-04-21T23:22:01.161Z,101578.53
2023-04-21T23:24:30.736Z,101576.13
2023-04-21T23:27:01.253Z,101577.97
2023-04-21T23:29:30.995Z,101576.34
2023-04-21T23:32:01.070Z,101571.06
2023-04-21T23:34:32.162Z,101570.91
2023-04-21T23:37:02.274Z,101573.53
2023-04-21T23:39:31.891Z,101566.66
2023-04-21T23:42:02.715Z,101565.84
2023-04-21T23:44:32.422Z,101561.09
2023-04-21T23:47:02.353Z,101560.22
2023-04-21T23:49:33.748Z,101566.00
2023-04-21T23:52:03.822Z,101562.25
2023-04-21T23:54:33.349Z,101555.97
2023-04-21T23:57:03.737Z,101552.38
2023-04-21T23:59:33.330Z,101548.91
